Time;durP1;ratioP1;P1;durP2;ratioP2;P2;SDS_P1;SDS_P2;PMS_P1;PMS_P2;Temp;Humidity;BMP_temperature;BMP_pressure;BME280_temperature;BME280_humidity;BME280_pressure;Samples;Min_cycle;Max_cycle;Signal;HPM_P1;HPM_P2
2021/11/23 00:02:24;;;;;;;6.13;2.42;;;5.50;96.10;;;;;;4992912;28;20477;-79
2021/11/23 00:04:51;;;;;;;5.75;2.70;;;5.50;96.10;;;;;;4993360;28;20023;-78
2021/11/23 00:07:17;;;;;;;6.05;2.63;;;5.50;96.10;;;;;;4991806;28;20462;-78
2021/11/23 00:09:43;;;;;;;5.88;3.15;;;5.50;96.10;;;;;;4992796;28;20034;-78
2021/11/23 00:12:08;;;;;;;6.85;2.78;;;5.50;96.10;;;;;;4993003;28;20036;-78
2021/11/23 00:14:34;;;;;;;5.13;2.47;;;5.50;96.10;;;;;;4992465;28;20044;-78
2021/11/23 00:17:00;;;;;;;6.60;2.70;;;5.50;96.10;;;;;;4993204;28;20126;-78
2021/11/23 00:19:26;;;;;;;5.20;2.72;;;5.50;96.10;;;;;;4991433;28;20031;-78
2021/11/23 00:21:51;;;;;;;6.05;2.70;;;5.50;96.10;;;;;;4991067;28;20106;-78
2021/11/23 00:24:17;;;;;;;6.93;2.88;;;5.40;96.20;;;;;;4992829;28;20431;-78
2021/11/23 00:26:43;;;;;;;4.80;2.72;;;5.50;96.20;;;;;;4992857;28;20329;-79
2021/11/23 00:29:09;;;;;;;5.88;3.20;;;5.50;96.20;;;;;;4991807;28;20125;-78
2021/11/23 00:31:35;;;;;;;8.35;3.33;;;5.50;96.20;;;;;;4991229;28;20034;-78
2021/11/23 00:34:00;;;;;;;5.90;2.67;;;5.50;96.20;;;;;;4991541;28;20030;-79
2021/11/23 00:36:26;;;;;;;4.50;3.08;;;5.60;96.20;;;;;;4992604;28;20060;-79
2021/11/23 00:38:52;;;;;;;4.22;2.80;;;5.60;96.10;;;;;;4991920;28;20446;-79
2021/11/23 00:41:18;;;;;;;3.60;2.70;;;5.70;96.00;;;;;;4992844;28;20114;-78
2021/11/23 00:43:45;;;;;;;3.83;2.58;;;5.80;96.00;;;;;;4992597;28;20061;-78
2021/11/23 00:46:11;;;;;;;6.35;3.28;;;5.80;95.90;;;;;;4991679;28;20054;-79
2021/11/23 00:48:38;;;;;;;6.13;2.40;;;5.90;95.80;;;;;;4992388;28;20026;-79
2021/11/23 00:51:05;;;;;;;4.90;2.53;;;5.90;95.80;;;;;;4992951;28;20065;-79
2021/11/23 00:53:33;;;;;;;4.40;2.75;;;6.00;95.80;;;;;;4991375;28;20069;-80
2021/11/23 00:55:59;;;;;;;7.22;2.90;;;6.00;95.80;;;;;;4993159;28;20463;-80
2021/11/23 00:58:25;;;;;;;6.40;3.20;;;6.10;95.80;;;;;;4993152;28;20076;-79
2021/11/23 01:00:51;;;;;;;9.32;2.67;;;6.10;95.70;;;;;;4991165;28;20034;-80
2021/11/23 01:03:17;;;;;;;4.65;2.78;;;6.10;95.60;;;;;;4993114;28;20019;-80
2021/11/23 01:05:45;;;;;;;5.75;2.88;;;6.20;95.60;;;;;;4999130;28;20023;-79
2021/11/23 01:08:11;;;;;;;4.35;2.60;;;6.20;95.60;;;;;;5003525;28;20027;-80
2021/11/23 01:10:37;;;;;;;3.85;2.58;;;6.20;95.60;;;;;;5003432;28;20065;-79
2021/11/23 01:13:03;;;;;;;9.85;3.78;;;6.30;95.60;;;;;;5001258;28;20537;-79
2021/11/23 01:15:29;;;;;;;5.32;2.53;;;6.30;95.50;;;;;;4995376;28;20053;-80
2021/11/23 01:17:54;;;;;;;5.43;2.40;;;6.40;95.50;;;;;;4995563;28;20355;-79
2021/11/23 01:20:21;;;;;;;4.97;2.50;;;6.40;95.50;;;;;;4991868;28;20030;-79
2021/11/23 01:22:47;;;;;;;4.15;2.25;;;6.50;95.50;;;;;;4991007;28;20392;-80
2021/11/23 01:25:13;;;;;;;4.65;2.20;;;6.50;95.50;;;;;;4992718;28;20052;-80
2021/11/23 01:27:39;;;;;;;8.95;3.05;;;6.50;95.40;;;;;;4990899;28;20026;-80
2021/11/23 01:30:07;;;;;;;3.45;2.90;;;6.60;95.40;;;;;;4991333;28;20034;-80
2021/11/23 01:32:32;;;;;;;3.50;2.60;;;6.60;95.50;;;;;;4992885;28;20033;-77
2021/11/23 01:34:58;;;;;;;4.68;2.50;;;6.60;95.60;;;;;;4996201;28;20023;-78
2021/11/23 01:37:24;;;;;;;5.13;2.65;;;6.60;95.60;;;;;;4996194;28;20026;-79
2021/11/23 01:39:49;;;;;;;3.95;2.38;;;6.60;95.60;;;;;;4995545;28;20027;-78
2021/11/23 01:42:15;;;;;;;4.47;2.67;;;6.60;95.60;;;;;;4994642;28;20031;-79
2021/11/23 01:44:41;;;;;;;5.05;2.58;;;6.70;95.60;;;;;;4995542;28;20030;-78
2021/11/23 01:47:07;;;;;;;4.88;2.50;;;6.60;95.50;;;;;;4996010;28;20220;-78
2021/11/23 01:49:32;;;;;;;6.82;2.80;;;6.60;95.50;;;;;;4995319;28;20076;-78
2021/11/23 01:51:58;;;;;;;6.47;2.60;;;6.60;95.60;;;;;;4995898;28;20030;-78
2021/11/23 01:54:24;;;;;;;5.60;2.85;;;6.70;95.60;;;;;;4995742;28;20037;-79
2021/11/23 01:56:50;;;;;;;6.22;2.78;;;6.60;95.60;;;;;;4995540;28;20034;-78
2021/11/23 01:59:16;;;;;;;6.03;3.05;;;6.70;95.60;;;;;;4995745;28;20125;-78
2021/11/23 02:01:42;;;;;;;4.45;2.30;;;6.70;95.50;;;;;;4995255;28;20435;-78
2021/11/23 02:04:08;;;;;;;5.07;2.45;;;6.70;95.50;;;;;;4994247;28;20125;-79
2021/11/23 02:06:34;;;;;;;5.22;3.03;;;6.60;95.60;;;;;;4993552;28;20476;-78
2021/11/23 02:09:00;;;;;;;6.10;2.90;;;6.60;95.60;;;;;;4993846;28;20085;-79
2021/11/23 02:11:26;;;;;;;4.35;2.75;;;6.50;95.70;;;;;;4995182;28;20030;-78
2021/11/23 02:13:52;;;;;;;6.20;3.10;;;6.50;95.80;;;;;;4993556;28;20389;-78
2021/11/23 02:16:18;;;;;;;7.63;2.90;;;6.40;95.80;;;;;;4993942;28;20031;-78
2021/11/23 02:18:44;;;;;;;4.25;2.60;;;6.50;95.80;;;;;;4993557;28;20141;-78
2021/11/23 02:21:10;;;;;;;8.80;3.13;;;6.50;95.80;;;;;;4995469;28;20498;-78
2021/11/23 02:23:36;;;;;;;5.28;2.88;;;6.50;95.80;;;;;;4993512;28;20022;-78
2021/11/23 02:26:02;;;;;;;4.30;2.60;;;6.50;95.80;;;;;;4993818;28;20072;-79
2021/11/23 02:28:28;;;;;;;5.07;2.95;;;6.50;95.80;;;;;;4993736;28;20026;-78
2021/11/23 02:30:55;;;;;;;4.85;2.50;;;6.50;95.80;;;;;;4994580;28;20495;-79
2021/11/23 02:33:25;;;;;;;5.30;3.10;;;6.50;95.80;;;;;;4994930;28;20031;-77
2021/11/23 02:35:54;;;;;;;7.80;2.58;;;6.50;95.80;;;;;;4993253;28;20029;-78
2021/11/23 02:38:22;;;;;;;4.63;2.50;;;6.50;95.90;;;;;;4994641;28;20026;-78
2021/11/23 02:40:48;;;;;;;6.28;3.20;;;6.60;95.90;;;;;;4994361;28;20034;-79
2021/11/23 02:43:15;;;;;;;5.20;2.40;;;6.60;95.80;;;;;;4994787;28;20019;-78
2021/11/23 02:45:40;;;;;;;7.38;3.15;;;6.60;95.90;;;;;;4993670;28;20053;-79
2021/11/23 02:48:09;;;;;;;6.53;2.88;;;6.50;95.90;;;;;;4993419;28;20053;-78
2021/11/23 02:50:35;;;;;;;7.20;2.88;;;6.60;95.90;;;;;;4994186;28;20026;-80
2021/11/23 02:53:00;;;;;;;11.25;3.05;;;6.60;95.80;;;;;;4994675;28;20030;-77
2021/11/23 02:55:29;;;;;;;5.70;2.83;;;6.70;95.80;;;;;;4993300;28;20031;-78
2021/11/23 02:57:55;;;;;;;6.53;2.88;;;6.70;95.70;;;;;;4994124;28;20026;-78
2021/11/23 03:00:26;;;;;;;5.30;2.35;;;6.70;95.70;;;;;;4993246;28;20018;-78
2021/11/23 03:02:52;;;;;;;;;;;6.70;95.70;;;;;;4993146;28;20027;-77
2021/11/23 03:05:20;;;;;;;9.82;3.10;;;6.60;95.80;;;;;;4994370;28;20380;-79
2021/11/23 03:07:47;;;;;;;4.93;2.72;;;6.60;95.70;;;;;;4994061;28;20049;-79
2021/11/23 03:10:13;;;;;;;3.90;2.50;;;6.60;95.80;;;;;;4994445;28;20027;-78
2021/11/23 03:12:39;;;;;;;5.15;2.92;;;6.60;95.80;;;;;;4992469;28;20026;-79
2021/11/23 03:15:07;;;;;;;5.50;3.42;;;6.60;95.90;;;;;;4992824;28;20022;-78
2021/11/23 03:17:33;;;;;;;6.75;3.20;;;6.60;95.90;;;;;;4992860;28;20424;-78
2021/11/23 03:19:59;;;;;;;6.93;3.38;;;6.60;95.90;;;;;;4992185;28;20037;-78
2021/11/23 03:22:25;;;;;;;7.43;3.00;;;6.60;95.90;;;;;;4994003;28;20030;-78
2021/11/23 03:24:51;;;;;;;6.53;2.90;;;6.60;95.90;;;;;;4992266;28;20113;-78
2021/11/23 03:27:17;;;;;;;5.60;2.85;;;6.60;95.90;;;;;;4993875;28;20026;-78
2021/11/23 03:29:43;;;;;;;5.40;3.05;;;6.60;95.90;;;;;;4992321;28;20109;-79
2021/11/23 03:32:10;;;;;;;6.85;3.13;;;6.70;95.90;;;;;;4992542;28;20543;-78
2021/11/23 03:34:37;;;;;;;5.55;3.30;;;6.60;95.90;;;;;;4992220;28;20078;-78
2021/11/23 03:37:09;;;;;;;9.02;3.28;;;6.60;96.00;;;;;;4993933;28;20034;-79
2021/11/23 03:39:35;;;;;;;;;;;6.50;96.00;;;;;;4992891;28;20379;-78
2021/11/23 03:42:01;;;;;;;5.38;2.92;;;6.50;96.00;;;;;;4991928;28;19905;-78
2021/11/23 03:44:27;;;;;;;5.82;3.17;;;6.50;96.00;;;;;;4993693;28;20027;-77
2021/11/23 03:46:53;;;;;;;6.70;3.38;;;6.50;95.90;;;;;;4992861;28;20073;-78
2021/11/23 03:49:19;;;;;;;6.72;3.63;;;6.50;96.00;;;;;;4993223;28;20390;-79
2021/11/23 03:51:44;;;;;;;9.50;3.55;;;6.50;96.10;;;;;;4992726;28;20475;-77
2021/11/23 03:54:10;;;;;;;6.07;3.05;;;6.50;96.00;;;;;;4992253;28;20088;-78
2021/11/23 03:56:36;;;;;;;4.70;3.15;;;6.60;96.10;;;;;;4992483;28;20034;-78
2021/11/23 03:59:01;;;;;;;4.88;2.92;;;6.70;96.00;;;;;;4993066;28;20490;-78
2021/11/23 04:01:27;;;;;;;4.65;2.90;;;6.70;96.00;;;;;;4992118;28;20208;-78
2021/11/23 04:03:53;;;;;;;5.85;3.33;;;6.80;96.00;;;;;;4991581;28;20505;-78
2021/11/23 04:06:18;;;;;;;8.15;3.50;;;6.80;95.90;;;;;;4992429;28;20038;-78
2021/11/23 04:08:44;;;;;;;7.97;3.53;;;6.80;95.90;;;;;;4991279;28;20037;-78
2021/11/23 04:11:10;;;;;;;5.72;3.10;;;6.90;95.80;;;;;;4992115;28;20033;-78
2021/11/23 04:13:36;;;;;;;5.40;2.92;;;6.90;95.80;;;;;;4993257;28;20503;-78
2021/11/23 04:16:02;;;;;;;6.03;3.17;;;6.90;95.90;;;;;;4991409;28;20053;-78
2021/11/23 04:18:28;;;;;;;8.23;3.80;;;6.90;95.90;;;;;;4993234;28;20105;-78
2021/11/23 04:20:53;;;;;;;4.82;2.83;;;6.90;95.90;;;;;;4992460;28;20505;-78
2021/11/23 04:23:19;;;;;;;6.75;2.85;;;7.00;95.90;;;;;;4993317;28;20026;-79
2021/11/23 04:25:45;;;;;;;9.18;3.35;;;7.00;95.90;;;;;;4992692;28;20022;-78
2021/11/23 04:28:11;;;;;;;6.93;2.95;;;7.00;95.90;;;;;;4993502;28;20046;-78
2021/11/23 04:30:36;;;;;;;9.45;3.50;;;7.00;95.90;;;;;;4991935;28;20062;-78
2021/11/23 04:33:02;;;;;;;6.55;3.03;;;7.00;96.00;;;;;;4991394;28;20121;-78
2021/11/23 04:35:28;;;;;;;5.63;3.17;;;7.00;96.00;;;;;;4992903;28;20034;-78
2021/11/23 04:37:53;;;;;;;6.65;3.17;;;7.10;96.00;;;;;;4992624;28;20486;-78
2021/11/23 04:40:19;;;;;;;5.65;3.33;;;7.10;96.00;;;;;;4993028;28;20031;-78
2021/11/23 04:42:45;;;;;;;7.22;3.03;;;7.10;95.90;;;;;;4991257;28;20022;-77
2021/11/23 04:45:13;;;;;;;6.03;2.63;;;7.10;95.90;;;;;;4993194;28;20167;-78
2021/11/23 04:47:39;;;;;;;6.38;3.20;;;7.20;95.90;;;;;;4992894;28;20054;-78
2021/11/23 04:50:10;;;;;;;6.32;2.92;;;7.20;95.80;;;;;;4992725;28;20050;-78
2021/11/23 04:52:36;;;;;;;8.35;4.15;;;7.20;95.70;;;;;;4991685;28;20062;-78
2021/11/23 04:55:02;;;;;;;4.00;2.65;;;7.20;95.80;;;;;;4992208;28;20030;-78
2021/11/23 04:57:28;;;;;;;7.03;3.58;;;7.20;95.70;;;;;;4991655;28;20037;-77
2021/11/23 04:59:54;;;;;;;5.60;3.00;;;7.20;95.70;;;;;;4992164;28;20030;-77
2021/11/23 05:02:19;;;;;;;6.63;2.83;;;7.20;95.80;;;;;;4992813;28;20018;-78
2021/11/23 05:04:46;;;;;;;8.85;3.72;;;7.20;95.70;;;;;;4992149;28;20030;-78
2021/11/23 05:07:12;;;;;;;5.15;3.03;;;7.20;95.80;;;;;;4991383;28;20043;-79
2021/11/23 05:09:38;;;;;;;5.82;2.97;;;7.10;95.80;;;;;;4996654;28;20030;-78
2021/11/23 05:12:04;;;;;;;6.70;2.90;;;7.10;95.90;;;;;;4994373;28;20196;-78
2021/11/23 05:14:30;;;;;;;7.70;3.15;;;7.10;95.90;;;;;;4996514;28;20033;-78
2021/11/23 05:16:56;;;;;;;6.20;3.20;;;7.10;95.90;;;;;;4995679;28;20030;-78
2021/11/23 05:19:21;;;;;;;7.45;3.00;;;7.10;96.00;;;;;;4995043;28;20030;-78
2021/11/23 05:21:47;;;;;;;5.45;3.33;;;7.10;96.00;;;;;;4996293;28;20145;-79
2021/11/23 05:24:14;;;;;;;7.13;2.60;;;7.10;96.10;;;;;;4995150;28;20051;-79
2021/11/23 05:26:40;;;;;;;6.38;2.92;;;7.10;96.10;;;;;;4994949;28;20027;-79
2021/11/23 05:29:06;;;;;;;4.32;2.70;;;7.20;96.10;;;;;;4995784;28;20046;-79
2021/11/23 05:31:33;;;;;;;5.68;2.95;;;7.20;96.10;;;;;;4995927;28;20027;-79
2021/11/23 05:33:59;;;;;;;7.40;3.08;;;7.20;96.10;;;;;;4994422;28;20439;-79
2021/11/23 05:36:25;;;;;;;6.03;2.72;;;7.20;96.10;;;;;;4994897;28;20023;-78
2021/11/23 05:38:51;;;;;;;6.57;2.78;;;7.20;96.00;;;;;;4995598;28;20026;-79
2021/11/23 05:41:17;;;;;;;6.07;2.90;;;7.20;96.00;;;;;;4995982;28;20109;-79
2021/11/23 05:43:42;;;;;;;4.13;2.50;;;7.20;96.00;;;;;;4994838;28;20065;-78
2021/11/23 05:46:08;;;;;;;7.28;3.20;;;7.20;96.00;;;;;;4995484;28;20491;-80
2021/11/23 05:48:35;;;;;;;3.22;2.08;;;7.20;96.00;;;;;;4995898;28;20038;-80
2021/11/23 05:51:04;;;;;;;5.45;2.95;;;7.20;96.00;;;;;;4994346;28;20026;-79
2021/11/23 05:53:39;;;;;;;8.05;3.15;;;7.20;96.00;;;;;;4994969;28;20390;-79
2021/11/23 05:56:06;;;;;;;6.05;2.67;;;7.20;96.00;;;;;;4995339;28;20036;-79
2021/11/23 05:58:32;;;;;;;5.80;2.95;;;7.20;96.10;;;;;;4993526;28;20048;-79
2021/11/23 06:00:57;;;;;;;6.63;2.85;;;7.10;96.10;;;;;;4993873;28;20117;-78
2021/11/23 06:03:23;;;;;;;4.90;2.55;;;7.10;96.20;;;;;;4994251;28;20042;-79
2021/11/23 06:05:49;;;;;;;7.70;2.85;;;7.10;96.30;;;;;;4993551;28;20029;-78
2021/11/23 06:08:15;;;;;;;4.55;2.65;;;7.10;96.30;;;;;;4994860;28;20026;-80
2021/11/23 06:10:41;;;;;;;5.82;3.40;;;7.10;96.30;;;;;;4993925;28;20038;-79
2021/11/23 06:13:08;;;;;;;4.63;2.35;;;7.10;96.30;;;;;;4995004;28;20041;-80
2021/11/23 06:15:34;;;;;;;4.60;2.63;;;7.10;96.30;;;;;;4997649;28;20018;-80
2021/11/23 06:18:02;;;;;;;3.85;2.40;;;7.10;96.30;;;;;;4994551;28;20045;-80
2021/11/23 06:20:30;;;;;;;12.18;2.83;;;7.10;96.30;;;;;;4994735;28;20026;-79
2021/11/23 06:23:00;;;;;;;6.15;2.80;;;7.20;96.30;;;;;;4995725;28;20463;-79
2021/11/23 06:25:26;;;;;;;6.38;2.40;;;7.20;96.30;;;;;;4995611;28;20457;-79
2021/11/23 06:27:52;;;;;;;7.75;3.17;;;7.20;96.30;;;;;;4994336;28;20026;-78
2021/11/23 06:30:18;;;;;;;5.57;2.60;;;7.20;96.30;;;;;;4995789;28;20469;-79
2021/11/23 06:32:44;;;;;;;7.78;2.72;;;7.20;96.30;;;;;;4994907;28;20129;-80
2021/11/23 06:35:10;;;;;;;8.77;2.72;;;7.20;96.30;;;;;;4994348;28;20435;-74
2021/11/23 06:37:36;;;;;;;5.47;2.50;;;7.20;96.30;;;;;;4994797;28;20069;-74
2021/11/23 06:40:02;;;;;;;6.05;2.90;;;7.20;96.30;;;;;;4994348;28;20101;-75
2021/11/23 06:42:28;;;;;;;9.65;3.17;;;7.10;96.30;;;;;;4993634;28;20050;-75
2021/11/23 06:44:53;;;;;;;6.00;2.53;;;7.10;96.30;;;;;;4994391;28;20065;-75
2021/11/23 06:47:19;;;;;;;8.23;2.45;;;7.10;96.30;;;;;;4994925;28;20506;-75
2021/11/23 06:49:45;;;;;;;4.78;2.60;;;7.10;96.40;;;;;;4994670;28;20027;-74
2021/11/23 06:52:11;;;;;;;5.00;3.00;;;7.10;96.50;;;;;;4993946;28;20118;-74
2021/11/23 06:54:37;;;;;;;4.90;2.42;;;7.10;96.50;;;;;;4993159;28;20034;-74
2021/11/23 06:57:03;;;;;;;5.40;2.65;;;7.10;96.60;;;;;;4994022;28;20471;-74
2021/11/23 06:59:29;;;;;;;6.40;2.72;;;7.10;96.60;;;;;;4994140;28;20092;-74
2021/11/23 07:01:54;;;;;;;5.30;2.83;;;7.10;96.60;;;;;;4993969;28;20117;-75
2021/11/23 07:04:20;;;;;;;5.43;2.85;;;7.10;96.60;;;;;;4992955;28;20037;-74
2021/11/23 07:06:48;;;;;;;5.28;2.60;;;7.10;96.90;;;;;;4992769;28;20049;-74
2021/11/23 07:09:15;;;;;;;4.53;2.60;;;7.10;96.60;;;;;;4993783;28;20057;-73
2021/11/23 07:11:41;;;;;;;5.03;2.80;;;7.10;96.70;;;;;;4994128;28;20030;-74
2021/11/23 07:14:07;;;;;;;7.45;2.65;;;7.10;96.70;;;;;;4994038;28;20033;-74
2021/11/23 07:16:34;;;;;;;5.63;2.88;;;7.10;96.80;;;;;;4993042;28;20025;-73
2021/11/23 07:19:00;;;;;;;5.53;2.83;;;7.10;96.90;;;;;;4993601;28;20031;-73
2021/11/23 07:21:26;;;;;;;6.55;2.78;;;7.10;96.90;;;;;;4993877;28;20058;-74
2021/11/23 07:23:52;;;;;;;7.18;3.20;;;7.10;97.00;;;;;;4993584;28;20162;-74
2021/11/23 07:26:17;;;;;;;6.13;3.00;;;7.10;97.00;;;;;;4992233;28;20077;-74
2021/11/23 07:28:43;;;;;;;4.72;3.03;;;7.10;97.00;;;;;;4994021;28;20569;-75
2021/11/23 07:31:09;;;;;;;8.05;3.38;;;7.10;97.00;;;;;;4993192;28;20064;-74
2021/11/23 07:33:34;;;;;;;5.00;2.80;;;7.20;96.90;;;;;;4993497;28;20101;-74
2021/11/23 07:36:00;;;;;;;5.45;3.15;;;7.30;96.90;;;;;;4991985;28;20030;-74
2021/11/23 07:38:26;;;;;;;8.00;3.20;;;7.30;96.80;;;;;;4993646;28;20450;-74
2021/11/23 07:40:51;;;;;;;5.95;2.60;;;7.40;96.70;;;;;;4992276;28;20085;-74
2021/11/23 07:43:17;;;;;;;4.97;2.83;;;7.50;96.60;;;;;;4991891;28;20509;-74
2021/11/23 07:45:43;;;;;;;5.32;2.90;;;7.60;96.50;;;;;;4993600;28;20534;-74
2021/11/23 07:48:09;;;;;;;5.20;2.70;;;7.60;96.50;;;;;;4992995;28;20038;-74
2021/11/23 07:50:36;;;;;;;5.55;3.00;;;7.70;96.40;;;;;;4991991;28;20461;-74
2021/11/23 07:53:01;;;;;;;6.22;2.83;;;7.70;96.40;;;;;;4991750;28;20026;-74
2021/11/23 07:55:27;;;;;;;4.72;3.03;;;7.80;96.40;;;;;;4993460;28;20391;-74
2021/11/23 07:57:53;;;;;;;5.50;3.20;;;7.80;96.40;;;;;;4993728;28;20022;-73
2021/11/23 08:00:22;;;;;;;4.53;2.88;;;7.80;96.40;;;;;;4991415;28;20058;-74
2021/11/23 08:02:48;;;;;;;7.03;3.25;;;7.90;96.40;;;;;;4993174;28;20018;-74
2021/11/23 08:05:15;;;;;;;5.22;3.08;;;7.90;96.40;;;;;;4992843;28;20018;-73
2021/11/23 08:07:40;;;;;;;6.65;3.58;;;8.00;96.40;;;;;;4993262;28;20046;-73
2021/11/23 08:10:07;;;;;;;7.32;3.05;;;7.90;96.40;;;;;;4991290;28;20030;-74
2021/11/23 08:12:33;;;;;;;5.32;2.92;;;7.90;96.50;;;;;;4991930;28;20022;-74
2021/11/23 08:14:59;;;;;;;5.70;3.28;;;7.90;96.60;;;;;;4992747;28;20034;-75
2021/11/23 08:17:25;;;;;;;6.82;3.47;;;7.80;96.60;;;;;;4993012;28;20109;-74
2021/11/23 08:19:51;;;;;;;15.73;4.18;;;7.90;96.70;;;;;;4993112;28;20026;-74
2021/11/23 08:22:17;;;;;;;6.63;3.05;;;7.90;96.70;;;;;;4991262;28;20028;-74
2021/11/23 08:24:43;;;;;;;4.72;2.83;;;7.90;96.70;;;;;;4993175;28;20033;-75
2021/11/23 08:27:09;;;;;;;7.60;3.40;;;8.00;96.70;;;;;;4992880;28;20117;-74
2021/11/23 08:29:35;;;;;;;6.70;3.08;;;8.00;96.70;;;;;;4993057;28;20022;-74
2021/11/23 08:32:01;;;;;;;7.50;3.15;;;8.00;96.70;;;;;;4992320;28;20040;-74
2021/11/23 08:34:28;;;;;;;10.48;3.40;;;8.00;96.70;;;;;;4992824;28;20510;-74
2021/11/23 08:36:54;;;;;;;4.60;2.95;;;8.00;96.80;;;;;;4992870;28;20027;-74
2021/11/23 08:39:20;;;;;;;5.68;3.40;;;8.00;96.80;;;;;;4992235;28;20049;-74
2021/11/23 08:41:46;;;;;;;8.40;4.10;;;7.90;96.90;;;;;;4991583;28;20030;-73
2021/11/23 08:44:13;;;;;;;6.50;3.58;;;7.90;96.90;;;;;;4995021;28;20027;-75
2021/11/23 08:46:38;;;;;;;5.55;3.30;;;7.90;97.00;;;;;;4995923;28;20030;-75
2021/11/23 08:49:04;;;;;;;8.32;3.25;;;7.90;97.00;;;;;;4995220;28;20443;-73
2021/11/23 08:51:35;;;;;;;8.75;3.65;;;8.00;97.00;;;;;;4996644;28;20030;-74
2021/11/23 08:54:00;;;;;;;6.60;3.97;;;8.00;97.00;;;;;;4996323;28;20059;-74
2021/11/23 08:56:33;;;;;;;6.93;3.80;;;8.00;96.90;;;;;;4996601;28;20022;-74
2021/11/23 08:59:01;;;;;;;7.00;3.60;;;8.10;97.00;;;;;;4995378;28;20129;-74
2021/11/23 09:01:28;;;;;;;10.20;3.95;;;8.10;96.90;;;;;;4996239;28;20030;-74
2021/11/23 09:03:54;;;;;;;7.88;4.10;;;8.10;96.90;;;;;;4996513;28;20022;-74
2021/11/23 09:06:23;;;;;;;7.43;5.18;;;8.20;96.80;;;;;;4994376;28;20054;-74
2021/11/23 09:08:55;;;;;;;8.77;4.70;;;8.20;96.80;;;;;;4996673;28;20504;-75
2021/11/23 09:11:22;;;;;;;9.98;4.95;;;8.20;96.80;;;;;;4994570;28;20026;-75
2021/11/23 09:13:48;;;;;;;7.57;3.80;;;8.20;96.70;;;;;;4996505;28;20506;-75
2021/11/23 09:16:14;;;;;;;6.95;4.35;;;8.30;96.80;;;;;;4995680;28;20046;-74
2021/11/23 09:18:39;;;;;;;8.90;4.00;;;8.30;96.80;;;;;;4996201;28;20099;-75
2021/11/23 09:21:05;;;;;;;7.32;4.20;;;8.40;96.80;;;;;;4995431;28;20031;-75
2021/11/23 09:23:31;;;;;;;11.50;4.63;;;8.50;96.70;;;;;;4996256;28;20030;-75
2021/11/23 09:25:56;;;;;;;7.50;4.30;;;8.60;96.60;;;;;;4994948;28;20447;-75
2021/11/23 09:28:22;;;;;;;6.20;3.85;;;8.60;96.60;;;;;;4995633;28;20030;-75
2021/11/23 09:30:48;;;;;;;7.93;4.35;;;8.70;96.50;;;;;;4995654;28;20042;-75
2021/11/23 09:33:15;;;;;;;7.22;4.43;;;8.70;96.50;;;;;;4995227;28;20098;-75
2021/11/23 09:35:41;;;;;;;8.95;4.50;;;8.70;96.50;;;;;;4995855;28;20502;-75
2021/11/23 09:38:07;;;;;;;11.57;5.00;;;8.80;96.50;;;;;;4995307;28;20027;-75
2021/11/23 09:40:33;;;;;;;6.45;4.15;;;8.80;96.50;;;;;;4994553;28;20026;-75
2021/11/23 09:43:00;;;;;;;7.70;4.68;;;8.90;96.50;;;;;;4995836;28;20066;-75
2021/11/23 09:45:26;;;;;;;9.55;4.68;;;8.90;96.50;;;;;;4995341;28;20027;-75
2021/11/23 09:47:52;;;;;;;6.82;4.18;;;8.90;96.50;;;;;;4995691;28;20022;-75
2021/11/23 09:50:18;;;;;;;7.70;4.35;;;8.90;96.60;;;;;;4995073;28;20023;-75
2021/11/23 09:52:44;;;;;;;14.30;5.40;;;9.00;96.60;;;;;;4995461;28;20513;-75
2021/11/23 09:55:12;;;;;;;10.15;4.45;;;9.00;96.60;;;;;;4995082;28;20050;-75
2021/11/23 09:57:38;;;;;;;10.13;5.20;;;9.10;96.70;;;;;;4994129;28;20077;-75
2021/11/23 10:00:26;;;;;;;12.80;5.28;;;9.00;96.60;;;;;;4994106;28;20023;-75
2021/11/23 10:02:52;;;;;;;11.18;4.80;;;9.10;96.70;;;;;;4995510;28;20454;-75
2021/11/23 10:05:19;;;;;;;8.27;4.40;;;9.10;96.60;;;;;;4995119;28;20117;-75
2021/11/23 10:07:45;;;;;;;10.75;5.70;;;9.20;96.60;;;;;;4995089;28;20047;-75
2021/11/23 10:10:24;;;;;;;17.73;6.00;;;9.20;96.60;;;;;;4993526;28;20100;-75
2021/11/23 10:12:56;;;;;;;11.60;5.35;;;9.30;96.60;;;;;;4995443;28;20023;-75
2021/11/23 10:15:23;;;;;;;;;;;9.30;96.50;;;;;;4994992;28;20359;-75
2021/11/23 10:17:50;;;;;;;10.45;4.60;;;9.30;96.50;;;;;;4995210;28;19929;-75
2021/11/23 10:20:52;;;;;;;11.18;4.53;;;9.30;96.50;;;;;;4994532;28;20023;-75
2021/11/23 10:23:34;;;;;;;;;;;9.30;96.70;;;;;;4993086;28;20192;-75
2021/11/23 10:26:12;;;;;;;9.98;4.35;;;9.30;96.70;;;;;;4994803;28;19906;-74
2021/11/23 10:28:40;;;;;;;9.98;3.88;;;9.30;96.60;;;;;;4993484;28;20026;-74
2021/11/23 10:31:07;;;;;;;11.27;4.78;;;9.40;96.60;;;;;;4994276;28;20030;-74
2021/11/23 10:33:34;;;;;;;8.85;4.03;;;9.50;96.60;;;;;;4993518;28;20038;-74
2021/11/23 10:36:02;;;;;;;9.70;4.97;;;9.60;96.50;;;;;;4994742;28;20030;-74
2021/11/23 10:38:28;;;;;;;10.30;4.65;;;9.70;96.40;;;;;;4994013;28;20464;-75
2021/11/23 10:40:54;;;;;;;9.30;4.65;;;9.80;96.40;;;;;;4993504;28;20054;-74
2021/11/23 10:43:23;;;;;;;8.15;4.10;;;9.80;96.40;;;;;;4994259;28;20050;-74
2021/11/23 10:45:54;;;;;;;6.63;3.58;;;9.80;96.30;;;;;;4993716;28;20038;-74
2021/11/23 10:48:24;;;;;;;6.78;3.67;;;9.90;96.40;;;;;;4992980;28;20019;-74
2021/11/23 10:51:07;;;;;;;7.82;3.35;;;9.90;96.40;;;;;;4994647;28;20026;-74
2021/11/23 10:53:34;;;;;;;7.43;3.65;;;9.90;96.60;;;;;;4994700;28;20026;-74
2021/11/23 10:56:12;;;;;;;5.70;3.22;;;9.80;96.60;;;;;;4994440;28;20058;-74
2021/11/23 10:58:38;;;;;;;9.00;2.83;;;9.80;96.70;;;;;;4994523;28;20027;-74
2021/11/23 11:01:05;;;;;;;5.32;2.55;;;9.80;96.70;;;;;;4993097;28;20080;-74
2021/11/23 11:03:32;;;;;;;4.22;2.38;;;9.90;96.80;;;;;;4993756;28;20102;-74
2021/11/23 11:06:00;;;;;;;6.68;2.95;;;9.90;96.70;;;;;;4993296;28;20018;-73
2021/11/23 11:08:27;;;;;;;5.40;3.00;;;10.00;96.70;;;;;;4993967;28;20524;-74
2021/11/23 11:10:54;;;;;;;6.50;3.35;;;10.10;96.70;;;;;;4994363;28;20034;-74
2021/11/23 11:13:22;;;;;;;5.85;2.65;;;10.20;96.60;;;;;;4993830;28;20033;-75
2021/11/23 11:15:53;;;;;;;4.72;2.55;;;10.10;96.60;;;;;;4994214;28;20084;-74
2021/11/23 11:18:21;;;;;;;9.38;3.15;;;10.10;96.60;;;;;;4993663;28;20065;-74
2021/11/23 11:20:52;;;;;;;3.88;2.05;;;10.10;96.80;;;;;;4994087;28;20037;-74
2021/11/23 11:23:27;;;;;;;7.07;3.08;;;10.00;96.80;;;;;;4992312;28;20467;-74
2021/11/23 11:28:55;;;;;;;;;;;9.90;97.00;;;;;;4994895;28;20030;-74
2021/11/23 11:31:38;;;;;;;7.38;2.63;;;9.90;97.00;;;;;;4992109;28;20342;-74
2021/11/23 11:34:26;;;;;;;4.72;2.50;;;9.90;97.10;;;;;;4993803;28;20029;-73
2021/11/23 11:37:02;;;;;;;4.57;2.30;;;10.10;97.00;;;;;;4993885;28;20077;-75
2021/11/23 11:39:37;;;;;;;5.85;2.22;;;10.30;96.80;;;;;;4991917;28;20049;-75
2021/11/23 11:42:05;;;;;;;5.28;2.45;;;10.50;96.50;;;;;;4992367;28;20038;-74
2021/11/23 11:44:39;;;;;;;6.30;2.38;;;10.70;96.40;;;;;;4993168;28;20030;-74
2021/11/23 11:47:07;;;;;;;3.88;1.85;;;10.70;96.40;;;;;;4993682;28;20037;-74
2021/11/23 11:49:56;;;;;;;5.72;2.33;;;10.70;96.40;;;;;;4992960;28;20394;-74
2021/11/23 11:52:28;;;;;;;3.95;2.20;;;10.70;96.40;;;;;;4991582;28;20085;-75
2021/11/23 11:55:12;;;;;;;3.10;1.70;;;10.70;96.40;;;;;;4993906;28;20378;-75
2021/11/23 11:57:49;;;;;;;3.97;2.08;;;10.70;96.50;;;;;;4992000;28;20026;-75
2021/11/23 12:00:30;;;;;;;3.33;2.08;;;10.70;96.50;;;;;;4992867;28;20022;-75
2021/11/23 12:03:21;;;;;;;5.72;1.98;;;10.70;96.60;;;;;;4992161;28;20023;-74
2021/11/23 12:05:47;;;;;;;3.47;1.98;;;10.70;96.60;;;;;;4993256;28;20025;-74
2021/11/23 12:08:22;;;;;;;4.72;2.30;;;10.70;96.60;;;;;;4991593;28;20050;-75
2021/11/23 12:10:47;;;;;;;6.65;2.70;;;10.60;96.60;;;;;;4992058;28;20092;-74
2021/11/23 12:13:28;;;;;;;6.50;2.30;;;10.60;96.70;;;;;;4989521;28;20038;-74
2021/11/23 12:16:15;;;;;;;6.83;2.63;;;10.60;96.70;;;;;;5020903;28;20033;-75
2021/11/23 12:19:02;;;;;;;4.18;2.28;;;10.60;96.80;;;;;;4990056;28;20300;-75
2021/11/23 12:21:33;;;;;;;3.50;2.00;;;10.50;96.80;;;;;;4980793;28;20379;-75
2021/11/23 12:24:01;;;;;;;7.70;2.50;;;10.50;96.80;;;;;;4991733;28;20037;-75
2021/11/23 12:26:36;;;;;;;4.68;2.25;;;10.50;96.90;;;;;;4992076;28;20470;-75
2021/11/23 12:29:07;;;;;;;4.57;2.47;;;10.50;96.90;;;;;;4992310;28;20038;-75
2021/11/23 12:31:36;;;;;;;5.73;2.30;;;10.50;97.00;;;;;;4992006;28;20030;-74
2021/11/23 12:34:07;;;;;;;4.95;2.40;;;10.50;97.00;;;;;;4990180;28;20041;-75
2021/11/23 12:36:47;;;;;;;4.65;2.50;;;10.40;97.00;;;;;;4990882;28;20057;-75
2021/11/23 12:39:16;;;;;;;7.53;2.35;;;10.40;97.10;;;;;;4991187;28;20093;-75
2021/11/23 12:41:44;;;;;;;4.43;2.38;;;10.40;97.10;;;;;;4992204;28;20109;-75
2021/11/23 12:44:25;;;;;;;6.38;2.92;;;10.40;97.10;;;;;;4983513;28;20386;-75
2021/11/23 12:46:59;;;;;;;4.85;2.67;;;10.50;97.20;;;;;;4990600;28;20026;-75
2021/11/23 12:49:27;;;;;;;7.28;2.72;;;10.50;97.10;;;;;;4983462;28;20026;-75
2021/11/23 12:51:59;;;;;;;4.82;2.38;;;10.60;97.10;;;;;;4990787;28;20117;-74
2021/11/23 12:54:31;;;;;;;4.32;2.70;;;10.60;97.10;;;;;;4987283;28;20034;-74
2021/11/23 12:57:06;;;;;;;4.63;2.47;;;10.70;97.00;;;;;;4992130;28;20042;-74
2021/11/23 12:59:52;;;;;;;6.32;2.78;;;10.70;97.00;;;;;;4991323;28;20053;-75
2021/11/23 13:02:39;;;;;;;6.47;3.15;;;10.70;96.90;;;;;;4990354;28;20023;-74